Fortuna, Argentina
Current Conditions -  °F | °C
As of 3:00 PM on Friday 28 Nov 2014 (Local Time) from SAOC Reporting Station
Clear Clear  
Wind Chill: 86°   Ceiling: Unl
Heat Index: 86°   Visibility: 6mi
Dew Point: 46°   Wind: 31mph
Humidity: 25%   Direction: 20°NNE
Pressure: 29.77"   Gusts: 44mph
Location:  35.13°S, 65.54°W
Report Text: SAOC 281800Z 02027G38KT CAVOK 30/08 Q1008
Loading
Personal Weather Stations






























Interactive Weather Map New forecast layout! Learn more

10-Day Weather Forecast

Advertisements
Track Severe Weather on mobile